createdAt,value
2018-11-28T00:00:14.687Z,25.8
2018-11-28T00:01:05.309Z,25.8
2018-11-28T00:01:56.217Z,25.8
2018-11-28T00:02:46.223Z,25.8
2018-11-28T00:03:36.055Z,25.8
2018-11-28T00:04:25.842Z,25.8
2018-11-28T00:05:15.598Z,25.8
2018-11-28T00:06:05.661Z,25.8
2018-11-28T00:06:55.433Z,25.8
2018-11-28T00:25:08.517Z,25.7
2018-11-28T00:26:04.565Z,25.7
2018-11-28T00:26:48.057Z,25.7
2018-11-28T00:27:38.098Z,25.8
2018-11-28T00:28:27.604Z,25.7
2018-11-28T00:29:18.796Z,25.7
2018-11-28T00:30:08.526Z,25.7
2018-11-28T00:30:58.601Z,25.7
2018-11-28T00:31:48.391Z,25.7
2018-11-28T00:32:38.484Z,25.7
2018-11-28T00:33:28.234Z,25.7
2018-11-28T00:34:18.602Z,25.7
2018-11-28T00:35:09.417Z,25.7
2018-11-28T00:35:59.243Z,25.7
2018-11-28T00:36:48.753Z,25.7
2018-11-28T00:37:39.103Z,25.7
2018-11-28T00:38:28.578Z,25.7
2018-11-28T00:39:19.204Z,25.6
2018-11-28T00:40:08.433Z,25.6
2018-11-28T00:40:59.688Z,25.6
2018-11-28T00:41:49.380Z,25.7
2018-11-28T00:42:39.451Z,25.7
2018-11-28T00:43:29.742Z,25.6
2018-11-28T00:44:19.010Z,25.6
2018-11-28T00:45:09.055Z,25.6
2018-11-28T00:45:59.715Z,25.6
2018-11-28T00:46:48.905Z,25.6
2018-11-28T00:47:39.254Z,25.6
2018-11-28T00:48:29.310Z,25.7
2018-11-28T00:49:19.060Z,25.6
2018-11-28T00:50:08.867Z,25.6
2018-11-28T00:51:00.417Z,25.6
2018-11-28T00:51:49.564Z,25.6
2018-11-28T00:52:39.865Z,25.6
2018-11-28T00:53:30.495Z,25.6
2018-11-28T00:54:19.984Z,25.6
2018-11-28T00:55:10.071Z,25.6
2018-11-28T00:56:00.652Z,25.6
2018-11-28T00:56:50.707Z,25.6
2018-11-28T00:57:39.662Z,25.6
2018-11-28T00:58:30.291Z,25.6
2018-11-28T00:59:19.801Z,25.6
2018-11-28T01:00:10.199Z,25.6
2018-11-28T01:01:00.434Z,25.6
2018-11-28T01:01:50.518Z,25.6
2018-11-28T01:02:41.169Z,25.6
2018-11-28T01:03:31.188Z,25.6
2018-11-28T01:04:21.271Z,25.6
2018-11-28T01:05:10.477Z,25.6
2018-11-28T01:06:00.547Z,25.6
2018-11-28T01:06:50.578Z,25.6
2018-11-28T01:07:41.236Z,25.6
2018-11-28T01:08:31.276Z,25.6
2018-11-28T01:09:21.338Z,25.6
2018-11-28T01:10:11.996Z,25.6
2018-11-28T01:11:01.433Z,25.6
2018-11-28T01:11:51.745Z,25.6
2018-11-28T01:12:40.499Z,25.6
2018-11-28T01:13:31.366Z,25.6
2018-11-28T01:14:22.222Z,25.6
2018-11-28T01:15:11.505Z,25.6
2018-11-28T01:16:01.855Z,25.6
2018-11-28T01:16:51.378Z,25.6
2018-11-28T01:17:40.942Z,25.6
2018-11-28T01:18:31.528Z,25.6
2018-11-28T01:19:21.313Z,25.6
2018-11-28T01:20:10.793Z,25.6
2018-11-28T01:21:01.407Z,25.6
2018-11-28T01:21:52.017Z,25.6
2018-11-28T01:22:42.027Z,25.6
2018-11-28T01:23:32.654Z,25.5
2018-11-28T01:24:21.863Z,25.6
2018-11-28T01:25:12.460Z,25.6
2018-11-28T01:26:03.548Z,25.5
2018-11-28T01:26:52.432Z,25.6
2018-11-28T01:27:41.875Z,25.5
2018-11-28T01:28:32.417Z,25.6
2018-11-28T01:29:23.015Z,25.5
2018-11-28T01:30:12.550Z,25.5
2018-11-28T01:31:02.106Z,25.5
2018-11-28T01:31:53.017Z,25.5
2018-11-28T01:32:43.552Z,25.5
2018-11-28T01:33:33.077Z,25.5
2018-11-28T01:34:23.152Z,25.5
2018-11-28T01:35:13.171Z,25.5
2018-11-28T01:36:03.282Z,25.5
2018-11-28T01:36:52.785Z,25.5
2018-11-28T01:37:43.332Z,25.5
2018-11-28T01:38:33.436Z,25.5
2018-11-28T01:39:23.741Z,25.5
2018-11-28T01:40:12.971Z,25.5
2018-11-28T01:41:03.599Z,25.5
2018-11-28T01:41:53.639Z,25.5
2018-11-28T01:42:42.402Z,25.5
2018-11-28T01:43:33.270Z,25.5
2018-11-28T01:44:23.281Z,25.5
2018-11-28T01:45:13.059Z,25.5
2018-11-28T01:46:03.394Z,25.5
2018-11-28T01:46:53.444Z,25.5
2018-11-28T01:47:44.322Z,25.5
2018-11-28T01:48:33.599Z,25.5
2018-11-28T01:49:23.341Z,25.5
2018-11-28T01:50:13.959Z,25.5
2018-11-28T01:51:03.461Z,25.4
2018-11-28T01:51:53.546Z,25.4
2018-11-28T01:52:43.056Z,25.4
2018-11-28T01:53:33.701Z,25.5
2018-11-28T01:54:23.991Z,25.5
2018-11-28T01:55:14.044Z,25.4
2018-11-28T01:56:04.102Z,25.4
2018-11-28T01:56:54.473Z,25.5
2018-11-28T01:57:45.156Z,25.4
2018-11-28T01:58:34.553Z,25.4
2018-11-28T01:59:25.186Z,25.4
2018-11-28T02:00:15.003Z,25.4
2018-11-28T02:01:05.294Z,25.4
2018-11-28T02:01:55.178Z,25.4
2018-11-28T02:02:44.920Z,25.4
2018-11-28T02:03:34.345Z,25.4
2018-11-28T02:04:24.982Z,25.4
2018-11-28T02:05:15.570Z,25.4
2018-11-28T02:06:05.374Z,25.4
2018-11-28T02:06:55.160Z,25.4
2018-11-28T02:07:45.232Z,25.4
2018-11-28T02:08:35.540Z,25.4
2018-11-28T02:09:25.297Z,25.4
2018-11-28T02:10:15.126Z,25.4
2018-11-28T02:11:04.622Z,25.4
2018-11-28T02:11:55.777Z,25.4
2018-11-28T02:12:46.364Z,25.4
2018-11-28T02:13:36.149Z,25.4
2018-11-28T02:14:25.744Z,25.4
2018-11-28T02:15:16.009Z,25.4
2018-11-28T02:16:05.788Z,25.4
2018-11-28T02:16:55.872Z,25.4
2018-11-28T02:17:46.256Z,25.4
2018-11-28T02:18:35.762Z,25.4
2018-11-28T02:19:26.304Z,25.4
2018-11-28T02:20:15.616Z,25.4
2018-11-28T02:21:06.749Z,25.4
2018-11-28T02:21:55.661Z,25.4
2018-11-28T02:22:45.750Z,25.4
2018-11-28T02:23:35.752Z,25.4
2018-11-28T02:24:26.124Z,25.4
2018-11-28T02:25:16.014Z,25.4
2018-11-28T02:26:06.551Z,25.4
2018-11-28T02:26:56.572Z,25.4
2018-11-28T02:27:46.668Z,25.4
2018-11-28T02:28:36.161Z,25.4
2018-11-28T02:29:27.650Z,25.4
2018-11-28T02:30:17.281Z,25.3
2018-11-28T02:31:06.363Z,25.4
2018-11-28T02:31:57.525Z,25.3
2018-11-28T02:32:47.064Z,25.4
2018-11-28T02:33:37.340Z,25.3
2018-11-28T02:34:26.893Z,25.4
2018-11-28T02:35:17.755Z,25.3
2018-11-28T02:36:07.551Z,25.3
2018-11-28T02:36:57.307Z,25.3
2018-11-28T02:37:48.041Z,25.4
2018-11-28T02:38:37.403Z,25.4
2018-11-28T02:39:27.708Z,25.3
2018-11-28T02:40:17.852Z,25.3
2018-11-28T02:41:07.895Z,25.4
2018-11-28T02:41:57.654Z,25.3
2018-11-28T02:42:47.457Z,25.3
2018-11-28T02:43:38.365Z,25.3
2018-11-28T02:44:27.567Z,25.3
2018-11-28T02:45:18.539Z,25.3
2018-11-28T02:46:07.409Z,25.3
2018-11-28T02:46:57.490Z,25.3
2018-11-28T02:47:48.144Z,25.3
2018-11-28T02:48:38.165Z,25.3
2018-11-28T02:49:28.169Z,25.3
2018-11-28T02:50:18.305Z,25.3
2018-11-28T02:51:08.563Z,25.3
2018-11-28T02:51:58.655Z,25.3
2018-11-28T02:52:48.427Z,25.3
2018-11-28T02:53:38.794Z,25.3
2018-11-28T02:54:29.350Z,25.3
2018-11-28T02:55:19.277Z,25.3
2018-11-28T02:56:08.709Z,25.3
2018-11-28T02:56:58.774Z,25.3
2018-11-28T02:57:48.543Z,25.3
2018-11-28T02:58:39.109Z,25.3
2018-11-28T02:59:28.629Z,25.3
2018-11-28T03:00:19.578Z,25.3
2018-11-28T03:01:09.288Z,25.3
2018-11-28T03:01:58.796Z,25.3
2018-11-28T03:02:49.179Z,25.3
2018-11-28T03:03:39.192Z,25.3
2018-11-28T03:04:29.591Z,25.3
2018-11-28T03:05:19.691Z,25.3
2018-11-28T03:06:09.894Z,25.3
2018-11-28T03:06:59.753Z,25.3
2018-11-28T03:07:50.065Z,25.3
2018-11-28T03:08:39.582Z,25.3
2018-11-28T03:09:29.838Z,25.3
2018-11-28T03:10:19.417Z,25.3
2018-11-28T03:11:09.522Z,25.3
2018-11-28T03:11:59.501Z,25.3
2018-11-28T03:12:49.685Z,25.3
2018-11-28T03:13:39.896Z,25.3
2018-11-28T03:14:30.538Z,25.3
2018-11-28T03:15:20.001Z,25.3
2018-11-28T03:16:10.370Z,25.3
2018-11-28T03:17:00.128Z,25.3
2018-11-28T03:17:50.848Z,25.3
2018-11-28T03:18:40.328Z,25.3
2018-11-28T03:19:30.609Z,25.3
2018-11-28T03:20:21.010Z,25.3
2018-11-28T03:21:10.175Z,25.3
2018-11-28T03:21:59.950Z,25.3
2018-11-28T03:22:50.615Z,25.3
2018-11-28T03:23:40.322Z,25.3
2018-11-28T03:24:31.270Z,25.3
2018-11-28T03:25:20.845Z,25.3
2018-11-28T03:26:11.040Z,25.3
2018-11-28T03:27:00.882Z,25.3
2018-11-28T03:27:51.190Z,25.3
2018-11-28T03:28:40.982Z,25.3
2018-11-28T03:29:31.607Z,25.3
2018-11-28T03:30:21.854Z,25.3
2018-11-28T03:31:11.272Z,25.3
2018-11-28T03:32:01.343Z,25.3
2018-11-28T03:32:51.619Z,25.3
2018-11-28T03:33:41.612Z,25.3
2018-11-28T03:34:31.789Z,25.3
2018-11-28T03:35:23.056Z,25.2
2018-11-28T03:36:11.260Z,25.3
2018-11-28T03:37:01.564Z,25.3
2018-11-28T03:37:51.697Z,25.2
2018-11-28T03:38:41.686Z,25.2
2018-11-28T03:39:32.292Z,25.2
2018-11-28T03:40:21.808Z,25.2
2018-11-28T03:41:11.319Z,25.2
2018-11-28T03:42:01.939Z,25.2
2018-11-28T03:42:51.991Z,25.2
2018-11-28T03:43:41.729Z,25.2
2018-11-28T03:44:32.098Z,25.2
2018-11-28T03:45:22.497Z,25.2
2018-11-28T03:46:12.186Z,25.3
2018-11-28T03:47:02.557Z,25.2
2018-11-28T03:47:52.877Z,25.2
2018-11-28T03:48:42.371Z,25.2
2018-11-28T03:49:32.444Z,25.2
2018-11-28T03:50:22.742Z,25.2
2018-11-28T03:51:13.136Z,25.2
2018-11-28T03:52:02.081Z,25.2
2018-11-28T03:52:52.685Z,25.2
2018-11-28T03:53:41.631Z,25.2
2018-11-28T03:54:33.080Z,25.2
2018-11-28T03:55:23.436Z,25.2
2018-11-28T03:56:12.918Z,25.2
2018-11-28T03:57:02.568Z,25.2
2018-11-28T03:57:53.091Z,25.2
2018-11-28T03:58:43.365Z,25.2
2018-11-28T03:59:32.864Z,25.2
2018-11-28T04:00:23.820Z,25.2
2018-11-28T04:01:13.317Z,25.2
2018-11-28T04:02:03.645Z,25.2
2018-11-28T04:02:53.405Z,25.2
2018-11-28T04:03:43.500Z,25.2
2018-11-28T04:04:32.685Z,25.1
2018-11-28T04:05:23.990Z,25.2
2018-11-28T04:06:13.943Z,25.1
2018-11-28T04:07:03.987Z,25.2
2018-11-28T04:07:54.067Z,25.2
2018-11-28T04:08:44.052Z,25.1
2018-11-28T04:09:33.855Z,25.1
2018-11-28T04:10:24.245Z,25.2
2018-11-28T04:11:14.052Z,25.1
2018-11-28T04:12:04.594Z,25.2
2018-11-28T04:12:54.979Z,25.1
2018-11-28T04:13:44.713Z,25.1
2018-11-28T04:14:34.514Z,25.1
2018-11-28T04:15:24.601Z,25.1
2018-11-28T04:16:13.804Z,25.1
2018-11-28T04:17:04.106Z,25.1
2018-11-28T04:17:54.496Z,25.1
2018-11-28T04:18:45.026Z,25.1
2018-11-28T04:19:35.144Z,25.1
2018-11-28T04:20:24.464Z,25.1
2018-11-28T04:21:14.177Z,25.1
2018-11-28T04:22:04.785Z,25.1
2018-11-28T04:22:54.872Z,25.1
2018-11-28T04:23:44.681Z,25.1
2018-11-28T04:24:35.529Z,25.1
2018-11-28T04:25:26.274Z,25.1
2018-11-28T04:26:15.079Z,25.1
2018-11-28T04:27:05.164Z,25.1
2018-11-28T04:27:55.168Z,25.1
2018-11-28T04:28:44.656Z,25.1
2018-11-28T04:29:35.863Z,25.1
2018-11-28T04:30:26.062Z,25.1
2018-11-28T04:31:15.990Z,25.1
2018-11-28T04:32:05.749Z,25.1
2018-11-28T04:32:55.585Z,25.1
2018-11-28T04:33:45.911Z,25.1
2018-11-28T04:34:35.932Z,25.1
2018-11-28T04:35:26.158Z,25.1
2018-11-28T04:36:15.772Z,25.1
2018-11-28T04:54:23.667Z,25.1
2018-11-28T04:55:14.322Z,25.1
2018-11-28T04:56:04.149Z,25
2018-11-28T04:56:54.661Z,25.1
2018-11-28T04:57:44.249Z,25.1
2018-11-28T04:58:33.419Z,25.1
2018-11-28T04:59:24.339Z,25.1
2018-11-28T05:00:13.919Z,25.1
2018-11-28T05:01:04.167Z,25.1
2018-11-28T05:01:54.814Z,25.1
2018-11-28T05:02:44.611Z,25
2018-11-28T05:03:34.663Z,25.1
2018-11-28T05:04:24.156Z,25.1
2018-11-28T05:05:15.258Z,25
2018-11-28T05:06:04.241Z,25.1
2018-11-28T05:06:54.911Z,25.1
2018-11-28T05:07:45.206Z,25
2018-11-28T05:08:34.694Z,25
2018-11-28T05:09:24.843Z,25.1
2018-11-28T05:10:15.313Z,25
2018-11-28T05:11:05.128Z,25
2018-11-28T05:11:55.275Z,25
2018-11-28T05:12:45.569Z,25
2018-11-28T05:13:34.797Z,25.1
2018-11-28T05:14:25.457Z,25
2018-11-28T05:15:15.135Z,25
2018-11-28T05:16:05.208Z,25
2018-11-28T05:16:54.965Z,25
2018-11-28T05:17:45.874Z,25
2018-11-28T05:18:35.100Z,25
2018-11-28T05:19:25.148Z,25
2018-11-28T05:20:15.800Z,25
2018-11-28T05:21:05.793Z,25
2018-11-28T05:21:55.900Z,25
2018-11-28T05:22:45.965Z,25
2018-11-28T05:23:35.167Z,25
2018-11-28T05:24:25.758Z,25
2018-11-28T05:25:15.851Z,25
2018-11-28T05:26:05.895Z,25
2018-11-28T05:26:55.667Z,25
2018-11-28T05:27:46.650Z,25
2018-11-28T05:28:36.350Z,24.9
2018-11-28T05:29:26.418Z,24.9
2018-11-28T05:30:16.482Z,24.9
2018-11-28T05:31:06.487Z,24.9
2018-11-28T05:31:56.369Z,25
2018-11-28T05:32:45.839Z,24.9
2018-11-28T05:33:36.470Z,25
2018-11-28T05:34:26.219Z,25
2018-11-28T05:35:16.012Z,24.9
2018-11-28T05:36:06.049Z,24.9
2018-11-28T05:36:56.384Z,24.9
2018-11-28T05:37:47.291Z,24.9
2018-11-28T05:38:36.781Z,24.9
2018-11-28T05:39:26.849Z,24.9
2018-11-28T05:40:17.239Z,24.9
2018-11-28T05:41:07.249Z,24.9
2018-11-28T05:41:57.609Z,24.9
2018-11-28T05:42:47.355Z,24.9
2018-11-28T05:43:37.146Z,24.9
2018-11-28T05:44:27.220Z,24.9
2018-11-28T05:45:17.493Z,24.9
2018-11-28T05:46:07.665Z,24.9
2018-11-28T05:46:58.166Z,24.9
2018-11-28T05:47:47.774Z,24.9
2018-11-28T05:48:37.210Z,24.9
2018-11-28T05:49:26.720Z,24.9
2018-11-28T05:50:17.893Z,24.9
2018-11-28T05:51:08.029Z,24.9
2018-11-28T05:51:57.466Z,24.9
2018-11-28T05:52:48.091Z,24.9
2018-11-28T05:53:37.358Z,24.9
2018-11-28T05:54:28.235Z,24.9
2018-11-28T05:55:18.304Z,24.9
2018-11-28T05:56:07.753Z,24.9
2018-11-28T05:56:57.807Z,24.8
2018-11-28T05:57:49.692Z,24.8
2018-11-28T05:58:37.637Z,24.8
2018-11-28T05:59:32.701Z,24.8
2018-11-28T06:00:17.771Z,24.8
2018-11-28T06:01:08.077Z,24.7
2018-11-28T06:01:58.414Z,24.6
2018-11-28T06:02:48.475Z,24.6
2018-11-28T06:03:38.540Z,24.5
2018-11-28T06:04:28.599Z,24.4
2018-11-28T06:05:18.666Z,24.4
2018-11-28T06:06:08.994Z,24.3
2018-11-28T06:06:58.748Z,24.3
2018-11-28T06:07:48.007Z,24.2
2018-11-28T06:08:38.608Z,24.2
2018-11-28T06:09:28.125Z,24.1
2018-11-28T06:10:19.248Z,24.1
2018-11-28T06:11:09.355Z,24.1
2018-11-28T06:11:59.988Z,24
2018-11-28T06:12:49.060Z,23.9
2018-11-28T06:13:39.807Z,23.9
2018-11-28T06:14:29.867Z,23.9
2018-11-28T06:15:19.374Z,23.8
2018-11-28T06:16:09.694Z,23.8
2018-11-28T06:16:59.752Z,23.8
2018-11-28T06:17:49.643Z,23.7
2018-11-28T06:18:41.547Z,23.6
2018-11-28T06:19:29.946Z,23.6
2018-11-28T06:20:19.254Z,23.5
2018-11-28T06:21:10.052Z,23.5
2018-11-28T06:22:00.376Z,23.4
2018-11-28T06:22:50.243Z,23.4
2018-11-28T06:23:40.531Z,23.4
2018-11-28T06:24:29.178Z,23.4
2018-11-28T06:25:22.126Z,23.3
2018-11-28T06:26:10.728Z,23.3
2018-11-28T06:27:00.533Z,23.3
2018-11-28T06:27:50.300Z,23.3
2018-11-28T06:28:41.150Z,23.2
2018-11-28T06:29:30.363Z,23.2
2018-11-28T06:30:20.159Z,23.1
2018-11-28T06:31:09.956Z,23.1
2018-11-28T06:32:00.570Z,23.1
2018-11-28T06:32:57.045Z,23.1
2018-11-28T06:33:41.755Z,23.1
2018-11-28T06:34:30.718Z,23
2018-11-28T06:35:21.051Z,23
2018-11-28T06:36:10.305Z,22.9
2018-11-28T06:37:00.882Z,22.9
2018-11-28T06:37:51.470Z,22.9
2018-11-28T06:38:40.695Z,22.9
2018-11-28T06:39:31.620Z,22.8
2018-11-28T06:40:27.815Z,22.8
2018-11-28T06:41:10.635Z,22.8
2018-11-28T06:42:01.299Z,22.8
2018-11-28T06:42:51.918Z,22.7
2018-11-28T06:43:42.183Z,22.7
2018-11-28T06:44:31.427Z,22.6
2018-11-28T06:45:21.502Z,22.6
2018-11-28T06:46:10.709Z,22.6
2018-11-28T06:47:02.147Z,22.6
2018-11-28T06:47:52.204Z,22.5
2018-11-28T06:48:42.022Z,22.5
2018-11-28T06:49:31.527Z,22.4
2018-11-28T06:50:22.230Z,22.4
2018-11-28T06:51:12.417Z,22.4
2018-11-28T06:52:02.202Z,22.4
2018-11-28T06:52:51.784Z,22.4
2018-11-28T06:53:42.311Z,22.3
2018-11-28T06:54:31.574Z,22.3
2018-11-28T06:55:22.216Z,22.3
2018-11-28T06:56:12.505Z,22.3
2018-11-28T06:57:02.559Z,22.2
2018-11-28T06:57:52.385Z,22.2
2018-11-28T06:58:42.943Z,22.2
2018-11-28T06:59:32.731Z,22.2
2018-11-28T07:00:22.869Z,22.2
2018-11-28T07:01:13.139Z,22.1
2018-11-28T07:02:02.914Z,22.1
2018-11-28T07:02:52.826Z,22.1
2018-11-28T07:03:43.033Z,22.1
2018-11-28T07:04:33.083Z,22.1
2018-11-28T07:05:22.379Z,22.1
2018-11-28T07:06:13.211Z,22
2018-11-28T07:07:03.301Z,22
2018-11-28T07:07:53.086Z,22
2018-11-28T07:08:44.021Z,21.9
2018-11-28T07:09:33.455Z,22
2018-11-28T07:10:22.751Z,21.9
2018-11-28T07:11:13.843Z,21.9
2018-11-28T07:12:02.795Z,21.9
2018-11-28T07:12:54.001Z,21.9
2018-11-28T07:13:43.450Z,21.9
2018-11-28T07:14:33.540Z,21.9
2018-11-28T07:15:23.317Z,21.9
2018-11-28T07:16:13.357Z,21.8
2018-11-28T07:17:03.777Z,21.8
2018-11-28T07:17:53.832Z,21.8
2018-11-28T07:18:44.052Z,21.8
2018-11-28T07:19:33.560Z,21.8
2018-11-28T07:20:23.765Z,21.8
2018-11-28T07:21:13.779Z,21.8
2018-11-28T07:22:04.774Z,21.8
2018-11-28T07:22:53.427Z,21.8
2018-11-28T07:23:43.489Z,21.8
2018-11-28T07:24:34.567Z,21.7
2018-11-28T07:25:24.387Z,21.7
2018-11-28T07:26:13.864Z,21.7
2018-11-28T07:27:03.634Z,21.7
2018-11-28T07:27:53.994Z,21.7
2018-11-28T07:28:44.071Z,21.6
2018-11-28T07:29:34.097Z,21.6
2018-11-28T07:30:24.531Z,21.6
2018-11-28T07:31:14.786Z,21.6
2018-11-28T07:32:03.718Z,21.6
2018-11-28T07:32:54.618Z,21.6
2018-11-28T07:33:43.819Z,21.6
2018-11-28T07:34:34.916Z,21.6
2018-11-28T07:35:25.280Z,21.6
2018-11-28T07:36:14.776Z,21.6
2018-11-28T07:37:05.093Z,21.6
2018-11-28T07:37:55.452Z,21.6
2018-11-28T07:38:45.233Z,21.6
2018-11-28T07:39:35.008Z,21.5
2018-11-28T07:40:26.010Z,21.6
2018-11-28T07:41:14.818Z,21.5
2018-11-28T07:42:05.197Z,21.5
2018-11-28T07:42:55.503Z,21.5
2018-11-28T07:43:46.122Z,21.5
2018-11-28T07:44:35.891Z,21.5
2018-11-28T07:45:26.063Z,21.5
2018-11-28T07:46:15.793Z,21.5
2018-11-28T07:47:05.831Z,21.5
2018-11-28T07:47:55.647Z,21.4
2018-11-28T07:48:45.914Z,21.4
2018-11-28T07:49:36.293Z,21.4
2018-11-28T07:50:26.427Z,21.4
2018-11-28T07:51:16.158Z,21.4
2018-11-28T07:52:06.442Z,21.4
2018-11-28T07:52:55.477Z,21.4
2018-11-28T07:53:46.074Z,21.4
2018-11-28T07:54:36.139Z,21.4
2018-11-28T07:55:26.192Z,21.4
2018-11-28T07:56:16.504Z,21.4
2018-11-28T07:57:06.044Z,21.4
2018-11-28T07:57:56.838Z,21.4
2018-11-28T07:58:46.627Z,21.4
2018-11-28T07:59:36.392Z,21.4
2018-11-28T08:00:26.832Z,21.4
2018-11-28T08:01:17.132Z,21.3
2018-11-28T08:02:06.902Z,21.3
2018-11-28T08:02:57.484Z,21.3
2018-11-28T08:03:47.256Z,21.3
2018-11-28T08:04:37.757Z,21.3
2018-11-28T08:05:27.997Z,21.3
2018-11-28T08:06:17.399Z,21.3
2018-11-28T08:07:07.482Z,21.3
2018-11-28T08:07:57.076Z,21.3
2018-11-28T08:08:46.543Z,21.3
2018-11-28T08:09:37.671Z,21.3
2018-11-28T08:10:27.886Z,21.3
2018-11-28T08:11:18.295Z,21.3
2018-11-28T08:12:07.836Z,21.3
2018-11-28T08:12:57.619Z,21.3
2018-11-28T08:13:47.704Z,21.3
2018-11-28T08:14:38.362Z,21.3
2018-11-28T08:15:27.993Z,21.3
2018-11-28T08:16:18.376Z,21.3
2018-11-28T08:17:07.696Z,21.3
2018-11-28T08:17:58.319Z,21.2
2018-11-28T08:18:47.504Z,21.2
2018-11-28T08:19:37.858Z,21.2
2018-11-28T08:20:28.464Z,21.2
2018-11-28T08:21:17.909Z,21.2
2018-11-28T08:22:08.564Z,21.2
2018-11-28T08:22:58.633Z,21.2
2018-11-28T08:23:48.136Z,21.2
2018-11-28T08:24:38.950Z,21.2
2018-11-28T08:25:34.228Z,21.2
2018-11-28T08:26:18.558Z,21.2
2018-11-28T08:27:08.948Z,21.2
2018-11-28T08:27:58.863Z,21.2
2018-11-28T08:28:49.020Z,21.2
2018-11-28T08:29:38.248Z,21.2
2018-11-28T08:31:19.261Z,21.2
2018-11-28T08:32:09.500Z,21.2
2018-11-28T08:40:29.901Z,21.1
2018-11-28T08:42:09.377Z,21.1
2018-11-28T08:42:59.562Z,21.1
2018-11-28T08:43:49.844Z,21.1
2018-11-28T08:44:39.857Z,21.1
2018-11-28T08:45:29.707Z,21.1
2018-11-28T08:46:20.570Z,21.1
2018-11-28T08:47:10.060Z,21.1
2018-11-28T08:48:00.387Z,21.1
2018-11-28T08:48:49.847Z,21.1
2018-11-28T08:49:40.202Z,21.1
2018-11-28T08:50:31.615Z,21.1
2018-11-28T08:51:19.782Z,21.1
2018-11-28T08:52:11.195Z,21.1
2018-11-28T09:08:48.876Z,20.9
2018-11-28T09:09:39.107Z,21
2018-11-28T09:10:29.201Z,20.9
2018-11-28T09:11:19.746Z,21
2018-11-28T09:12:08.446Z,20.9
2018-11-28T09:13:05.364Z,21
2018-11-28T09:13:48.529Z,21
2018-11-28T09:14:39.411Z,21
2018-11-28T09:15:29.486Z,20.9
2018-11-28T09:16:19.228Z,20.9
2018-11-28T09:17:09.011Z,21
2018-11-28T09:17:58.848Z,20.9
2018-11-28T09:18:49.745Z,20.9
2018-11-28T09:19:39.743Z,20.9
2018-11-28T09:20:29.245Z,20.9
2018-11-28T09:21:19.710Z,20.9
2018-11-28T09:22:09.928Z,20.9
2018-11-28T09:22:59.441Z,20.9
2018-11-28T09:23:49.800Z,20.9
2018-11-28T09:24:39.828Z,20.9
2018-11-28T09:25:29.639Z,20.9
2018-11-28T09:26:20.047Z,20.9
2018-11-28T09:27:09.197Z,20.9
2018-11-28T09:27:59.867Z,20.9
2018-11-28T09:28:50.101Z,20.9
2018-11-28T09:29:40.182Z,20.9
2018-11-28T09:30:29.760Z,20.9
2018-11-28T09:31:20.579Z,20.9
2018-11-28T09:32:10.402Z,20.9
2018-11-28T09:33:01.007Z,20.9
2018-11-28T09:33:50.184Z,20.9
2018-11-28T09:34:41.314Z,20.9
2018-11-28T09:35:30.862Z,20.9
2018-11-28T09:36:20.647Z,20.9
2018-11-28T09:37:10.937Z,20.9
2018-11-28T09:38:00.797Z,20.9
2018-11-28T09:38:51.082Z,20.9
2018-11-28T09:39:41.728Z,20.9
2018-11-28T09:40:30.711Z,20.9
2018-11-28T09:41:21.264Z,20.9
2018-11-28T09:42:11.639Z,20.9
2018-11-28T09:43:01.425Z,20.9
2018-11-28T09:43:51.467Z,20.9
2018-11-28T09:44:41.001Z,20.9
2018-11-28T09:45:31.596Z,20.9
2018-11-28T09:46:21.343Z,20.9
2018-11-28T09:47:11.393Z,20.9
2018-11-28T09:48:01.504Z,20.9
2018-11-28T09:48:51.798Z,20.9
2018-11-28T09:49:41.594Z,20.9
2018-11-28T09:50:32.222Z,20.9
2018-11-28T09:51:22.000Z,20.8
2018-11-28T09:52:12.025Z,20.8
2018-11-28T09:53:01.526Z,20.8
2018-11-28T09:53:52.203Z,20.8
2018-11-28T09:54:42.468Z,20.8
2018-11-28T09:55:32.028Z,20.9
2018-11-28T09:56:22.301Z,20.8
2018-11-28T09:57:11.560Z,20.8
2018-11-28T09:58:02.288Z,20.8
2018-11-28T09:58:52.228Z,20.8
2018-11-28T09:59:42.325Z,20.8
2018-11-28T10:00:32.488Z,20.8
2018-11-28T10:01:22.127Z,20.8
2018-11-28T10:02:13.135Z,20.8
2018-11-28T10:03:02.596Z,20.8
2018-11-28T10:03:53.115Z,20.8
2018-11-28T10:04:42.380Z,20.8
2018-11-28T10:05:33.297Z,20.8
2018-11-28T10:06:22.770Z,20.8
2018-11-28T10:07:13.337Z,20.8
2018-11-28T10:08:03.808Z,20.8
2018-11-28T10:08:53.620Z,20.8
2018-11-28T10:09:43.250Z,20.8
2018-11-28T10:10:33.698Z,20.8
2018-11-28T10:11:22.844Z,20.8
2018-11-28T10:12:12.658Z,20.8
2018-11-28T10:13:03.272Z,20.8
2018-11-28T10:13:53.010Z,20.8
2018-11-28T10:14:43.057Z,20.8
2018-11-28T10:15:39.746Z,20.8
2018-11-28T10:16:23.452Z,20.8
2018-11-28T10:17:13.248Z,20.8
2018-11-28T10:18:03.905Z,20.8
2018-11-28T10:18:53.447Z,20.8
2018-11-28T10:19:43.984Z,20.8
2018-11-28T10:20:33.752Z,20.8
2018-11-28T10:21:24.142Z,20.8
2018-11-28T10:22:14.422Z,20.8
2018-11-28T10:23:03.677Z,20.8
2018-11-28T10:23:54.329Z,20.8
2018-11-28T10:24:44.072Z,20.8
2018-11-28T10:25:34.099Z,20.8
2018-11-28T10:26:24.217Z,20.8
2018-11-28T10:27:14.774Z,20.8
2018-11-28T10:28:04.029Z,20.8
2018-11-28T10:28:54.072Z,20.8
2018-11-28T10:29:44.114Z,20.8
2018-11-28T10:30:35.337Z,20.8
2018-11-28T10:31:24.311Z,20.8
2018-11-28T10:32:14.669Z,20.8
2018-11-28T10:33:05.222Z,20.8
2018-11-28T10:33:55.211Z,20.8
2018-11-28T10:34:45.304Z,20.8
2018-11-28T10:35:34.546Z,20.8
2018-11-28T10:36:25.488Z,20.8
2018-11-28T10:37:14.651Z,20.8
2018-11-28T10:38:04.982Z,20.8
2018-11-28T10:38:55.216Z,20.8
2018-11-28T10:39:45.386Z,20.8
2018-11-28T10:40:35.836Z,20.8
2018-11-28T10:41:25.004Z,20.8
2018-11-28T10:42:15.553Z,20.8
2018-11-28T10:43:05.676Z,20.8
2018-11-28T10:43:55.926Z,20.8
2018-11-28T10:44:45.534Z,20.8
2018-11-28T10:45:35.519Z,20.8
2018-11-28T10:46:25.836Z,20.8
2018-11-28T10:47:16.187Z,20.7
2018-11-28T10:48:06.358Z,20.7
2018-11-28T10:48:56.323Z,20.7
2018-11-28T10:49:45.798Z,20.7
2018-11-28T10:50:36.410Z,20.7
2018-11-28T10:51:26.290Z,20.7
2018-11-28T10:52:16.269Z,20.8
2018-11-28T10:53:05.811Z,20.7
2018-11-28T10:53:57.689Z,20.7
2018-11-28T10:54:46.438Z,20.7
2018-11-28T10:55:36.220Z,20.7
2018-11-28T10:56:26.538Z,20.7
2018-11-28T10:57:16.381Z,20.7
2018-11-28T10:58:06.395Z,20.7
2018-11-28T10:58:56.445Z,20.7
2018-11-28T10:59:47.638Z,20.7
2018-11-28T11:00:36.922Z,20.7
2018-11-28T11:01:27.741Z,20.7
2018-11-28T11:02:17.230Z,20.7
2018-11-28T11:03:06.495Z,20.7
2018-11-28T11:03:57.608Z,20.7
2018-11-28T11:04:48.708Z,20.7
2018-11-28T11:05:36.987Z,20.7
2018-11-28T11:06:27.345Z,20.7
2018-11-28T11:07:17.642Z,20.7
2018-11-28T11:08:07.090Z,20.7
2018-11-28T11:08:57.527Z,20.7
2018-11-28T11:09:47.939Z,20.7
2018-11-28T11:10:36.998Z,20.7
2018-11-28T11:11:27.337Z,20.7
2018-11-28T11:12:17.942Z,20.7
2018-11-28T11:13:06.902Z,20.7
2018-11-28T11:13:57.530Z,20.6
2018-11-28T11:14:47.841Z,20.7
2018-11-28T11:15:37.949Z,20.7
2018-11-28T11:16:27.995Z,20.7
2018-11-28T11:17:17.488Z,20.7
2018-11-28T11:18:14.111Z,20.7
2018-11-28T11:18:57.853Z,20.7
2018-11-28T11:19:48.484Z,20.6
2018-11-28T11:20:38.463Z,20.6
2018-11-28T11:21:28.018Z,20.6
2018-11-28T11:22:18.951Z,20.6
2018-11-28T11:23:09.994Z,20.6
2018-11-28T11:23:58.293Z,20.6
2018-11-28T11:24:48.833Z,20.6
2018-11-28T11:25:38.315Z,20.6
2018-11-28T11:26:28.193Z,20.6
2018-11-28T11:27:18.705Z,20.6
2018-11-28T11:28:08.296Z,20.6
2018-11-28T11:28:58.679Z,20.6
2018-11-28T11:29:48.473Z,20.6
2018-11-28T11:30:38.700Z,20.6
2018-11-28T11:31:28.548Z,20.6
2018-11-28T11:32:18.323Z,20.6
2018-11-28T11:33:08.085Z,20.6
2018-11-28T11:33:59.353Z,20.6
2018-11-28T11:34:48.555Z,20.6
2018-11-28T11:35:38.835Z,20.6
2018-11-28T11:36:27.835Z,20.6
2018-11-28T11:37:18.663Z,20.6
2018-11-28T11:38:08.173Z,20.6
2018-11-28T11:38:58.784Z,20.6
2018-11-28T11:39:48.995Z,20.6
2018-11-28T11:40:39.171Z,20.6
2018-11-28T11:41:29.078Z,20.6
2018-11-28T11:42:18.997Z,20.6
2018-11-28T11:43:08.831Z,20.6
2018-11-28T11:43:59.124Z,20.6
2018-11-28T11:44:50.485Z,20.6
2018-11-28T11:45:40.938Z,20.6
2018-11-28T11:46:29.347Z,20.6
2018-11-28T11:47:20.123Z,20.6
2018-11-28T11:48:09.482Z,20.6
2018-11-28T11:49:01.627Z,20.6
2018-11-28T11:49:50.340Z,20.6
2018-11-28T11:50:40.095Z,20.6
2018-11-28T11:51:30.743Z,20.6
2018-11-28T11:52:21.429Z,20.6
2018-11-28T11:53:10.799Z,20.6
2018-11-28T11:54:00.324Z,20.6
2018-11-28T11:54:49.844Z,20.6
2018-11-28T11:55:41.036Z,20.6
2018-11-28T11:56:31.123Z,20.6
2018-11-28T11:57:20.292Z,20.6
2018-11-28T11:58:10.693Z,20.6
2018-11-28T11:59:00.943Z,20.6
2018-11-28T11:59:50.759Z,20.6
2018-11-28T12:00:41.032Z,20.6
2018-11-28T12:01:31.134Z,20.6
2018-11-28T12:02:20.916Z,20.6
2018-11-28T12:03:10.991Z,20.6
2018-11-28T12:04:01.638Z,20.6
2018-11-28T12:04:51.651Z,20.6
2018-11-28T12:05:40.996Z,20.6
2018-11-28T12:06:30.761Z,20.6
2018-11-28T12:07:21.541Z,20.6
2018-11-28T12:08:11.918Z,20.6